createdAt,value
2019-03-22T00:00:31.683Z,42.77
2019-03-22T00:03:01.417Z,42.63
2019-03-22T00:05:30.934Z,46.07
2019-03-22T00:08:00.926Z,42.87
2019-03-22T00:10:30.574Z,39.73
2019-03-22T00:13:00.139Z,39.50
2019-03-22T00:15:29.655Z,42.90
2019-03-22T00:17:59.571Z,46.07
2019-03-22T00:20:28.878Z,41.63
2019-03-22T00:23:00.579Z,39.27
2019-03-22T00:25:30.448Z,38.80
2019-03-22T00:27:59.949Z,40.03
2019-03-22T00:30:29.656Z,45.87
2019-03-22T00:32:59.234Z,44.87
2019-03-22T00:35:28.812Z,42.83
2019-03-22T00:37:58.571Z,41.67
2019-03-22T00:40:28.075Z,43.33
2019-03-22T00:42:58.205Z,47.90
2019-03-22T00:45:28.058Z,49.33
2019-03-22T00:47:58.225Z,46.33
2019-03-22T00:50:28.044Z,45.33
2019-03-22T00:52:57.884Z,49.40
2019-03-22T00:55:27.588Z,48.10
2019-03-22T00:57:57.370Z,44.83
2019-03-22T01:00:27.471Z,48.13
2019-03-22T01:02:58.351Z,41.83
2019-03-22T01:05:27.950Z,46.00
2019-03-22T01:07:57.537Z,46.93
2019-03-22T01:10:27.258Z,45.13
2019-03-22T01:12:57.274Z,43.47
2019-03-22T01:15:27.808Z,45.73
2019-03-22T01:17:57.768Z,44.10
2019-03-22T01:20:27.864Z,41.73
2019-03-22T01:22:57.657Z,48.93
2019-03-22T01:25:27.672Z,44.67
2019-03-22T01:27:57.251Z,43.77
2019-03-22T01:30:26.911Z,46.17
2019-03-22T01:32:56.513Z,43.37
2019-03-22T01:35:26.372Z,47.60
2019-03-22T01:37:56.084Z,52.77
2019-03-22T01:40:25.624Z,48.90
2019-03-22T01:42:55.642Z,42.87
2019-03-22T01:45:25.444Z,41.87
2019-03-22T01:47:55.161Z,45.40
2019-03-22T01:50:24.934Z,51.27
2019-03-22T01:52:54.456Z,48.23
2019-03-22T01:55:24.346Z,46.60
2019-03-22T01:57:54.222Z,47.97
2019-03-22T02:00:23.793Z,48.03
2019-03-22T02:02:53.427Z,46.47
2019-03-22T02:05:23.204Z,41.77
2019-03-22T02:07:53.070Z,50.17
2019-03-22T02:10:23.334Z,45.93
2019-03-22T02:12:53.010Z,42.47
2019-03-22T02:15:22.576Z,45.37
2019-03-22T02:17:52.271Z,45.23
2019-03-22T02:20:21.876Z,46.03
2019-03-22T02:22:51.487Z,42.90
2019-03-22T02:25:21.159Z,45.63
2019-03-22T02:27:51.140Z,48.60
2019-03-22T02:30:21.041Z,46.93
2019-03-22T02:32:50.720Z,49.63
2019-03-22T02:35:28.959Z,50.10
2019-03-22T02:37:51.428Z,46.20
2019-03-22T02:40:21.164Z,44.93
2019-03-22T02:42:50.865Z,50.67
2019-03-22T02:45:20.325Z,51.07
2019-03-22T02:47:50.113Z,49.30
2019-03-22T02:50:20.439Z,50.83
2019-03-22T02:52:50.241Z,55.17
2019-03-22T02:55:19.754Z,48.50
2019-03-22T02:57:49.752Z,48.57
2019-03-22T03:00:19.646Z,49.40
2019-03-22T03:02:49.465Z,46.10
2019-03-22T03:05:19.052Z,48.13
2019-03-22T03:07:48.828Z,50.63
2019-03-22T03:10:18.695Z,48.47
2019-03-22T03:12:48.777Z,48.00
2019-03-22T03:15:18.879Z,45.10
2019-03-22T03:17:48.210Z,48.40
2019-03-22T03:20:18.157Z,46.77
2019-03-22T03:22:48.077Z,49.53
2019-03-22T03:25:18.626Z,48.10
2019-03-22T03:27:48.396Z,47.20
2019-03-22T03:30:18.416Z,44.83
2019-03-22T03:32:48.143Z,53.83
2019-03-22T03:35:18.102Z,49.13
2019-03-22T03:37:47.734Z,46.47
2019-03-22T03:40:17.713Z,60.23
2019-03-22T03:42:47.040Z,46.97
2019-03-22T03:45:28.831Z,48.70
2019-03-22T03:47:58.712Z,45.30
2019-03-22T03:54:25.027Z,48.17
2019-03-22T03:56:57.200Z,50.97
2019-03-22T03:59:27.121Z,51.27
2019-03-22T04:01:56.739Z,48.53
2019-03-22T04:04:26.149Z,48.60
2019-03-22T04:06:55.687Z,52.13
2019-03-22T04:09:25.560Z,48.07
2019-03-22T04:11:55.213Z,48.13
2019-03-22T04:14:25.008Z,50.07
2019-03-22T04:16:54.320Z,54.50
2019-03-22T04:19:24.399Z,57.10
2019-03-22T04:21:54.603Z,53.40
2019-03-22T04:24:25.274Z,55.33
2019-03-22T04:26:55.022Z,54.20
2019-03-22T04:29:24.710Z,54.93
2019-03-22T04:31:54.093Z,55.27
2019-03-22T04:34:24.263Z,57.20
2019-03-22T04:36:53.858Z,51.47
2019-03-22T04:39:23.339Z,51.10
2019-03-22T04:41:53.244Z,54.97
2019-03-22T04:44:22.558Z,54.27
2019-03-22T04:46:52.484Z,52.10
2019-03-22T04:49:23.219Z,50.10
2019-03-22T04:51:53.626Z,49.20
2019-03-22T04:54:23.894Z,55.40
2019-03-22T04:56:54.544Z,62.23
2019-03-22T04:59:24.795Z,64.13
2019-03-22T05:01:55.730Z,69.70
2019-03-22T05:04:25.821Z,79.67
2019-03-22T05:06:55.670Z,93.57
2019-03-22T05:09:27.048Z,118.73
2019-03-22T05:11:57.006Z,136.10
2019-03-22T05:14:27.059Z,136.60
2019-03-22T05:16:56.789Z,199.23
2019-03-22T05:19:27.369Z,710.50
2019-03-22T05:21:58.077Z,919.07
2019-03-22T05:24:29.044Z,334.37
2019-03-22T05:26:59.581Z,419.00
2019-03-22T05:29:33.138Z,413.13
2019-03-22T05:32:05.225Z,311.77
2019-03-22T05:34:34.894Z,423.13
2019-03-22T05:37:04.459Z,256.03
2019-03-22T05:39:34.363Z,586.70
2019-03-22T05:42:04.224Z,279.90
2019-03-22T05:44:33.778Z,316.13
2019-03-22T05:47:03.416Z,623.47
2019-03-22T05:49:32.895Z,260.60
2019-03-22T05:52:02.492Z,187.20
2019-03-22T05:54:32.219Z,265.77
2019-03-22T05:57:12.550Z,466.83
2019-03-22T05:59:42.010Z,536.97
2019-03-22T06:02:04.507Z,360.63
2019-03-22T06:04:34.081Z,308.37
2019-03-22T06:07:03.697Z,608.33
2019-03-22T06:09:33.054Z,731.83
2019-03-22T06:12:02.533Z,439.83
2019-03-22T06:14:32.100Z,561.10
2019-03-22T06:17:01.439Z,381.03
2019-03-22T06:19:31.028Z,440.87
2019-03-22T06:22:00.373Z,375.77
2019-03-22T06:24:30.153Z,254.03
2019-03-22T06:26:59.557Z,841.23
2019-03-22T06:29:29.104Z,308.33
2019-03-22T06:31:58.391Z,371.17
2019-03-22T06:34:28.621Z,313.97
2019-03-22T06:36:58.475Z,496.87
2019-03-22T06:39:28.316Z,313.73
2019-03-22T06:41:57.910Z,657.47
2019-03-22T06:44:27.578Z,608.47
2019-03-22T06:46:57.126Z,274.57
2019-03-22T06:49:26.577Z,299.57
2019-03-22T06:51:56.050Z,189.57
2019-03-22T06:54:31.456Z,271.37
2019-03-22T06:56:56.623Z,258.70
2019-03-22T06:59:26.658Z,139.30
2019-03-22T07:01:56.370Z,349.90
2019-03-22T07:04:25.695Z,84.87
2019-03-22T07:06:54.962Z,90.17
2019-03-22T07:09:24.757Z,148.43
2019-03-22T07:11:54.298Z,86.97
2019-03-22T07:14:23.795Z,215.90
2019-03-22T07:16:53.431Z,102.53
2019-03-22T07:19:23.522Z,83.43
2019-03-22T07:21:52.909Z,202.67
2019-03-22T07:24:22.443Z,106.50
2019-03-22T07:26:52.259Z,169.20
2019-03-22T07:29:21.601Z,344.63
2019-03-22T07:31:51.055Z,414.97
2019-03-22T07:34:20.779Z,433.97
2019-03-22T07:36:50.419Z,95.80
2019-03-22T07:39:19.861Z,80.37
2019-03-22T07:41:49.554Z,64.53
2019-03-22T07:44:18.819Z,61.23
2019-03-22T07:46:48.310Z,68.97
2019-03-22T07:49:17.986Z,85.47
2019-03-22T07:51:47.747Z,77.60
2019-03-22T07:54:17.428Z,59.70
2019-03-22T07:56:47.333Z,77.23
2019-03-22T07:59:16.942Z,48.80
2019-03-22T08:01:46.625Z,76.60
2019-03-22T08:04:16.237Z,49.40
2019-03-22T08:06:45.951Z,58.00
2019-03-22T08:09:15.648Z,60.80
2019-03-22T08:11:45.234Z,59.80
2019-03-22T08:14:16.473Z,37.10
2019-03-22T08:16:45.893Z,38.03
2019-03-22T08:19:15.530Z,34.60
2019-03-22T08:21:45.111Z,42.80
2019-03-22T08:24:14.602Z,32.73
2019-03-22T08:26:44.291Z,35.17
2019-03-22T08:29:13.720Z,28.27
2019-03-22T08:31:43.645Z,29.53
2019-03-22T08:34:13.294Z,32.77
2019-03-22T08:36:42.797Z,28.23
2019-03-22T08:39:12.180Z,26.20
2019-03-22T08:41:42.378Z,25.83
2019-03-22T08:44:12.335Z,30.03
2019-03-22T08:46:44.682Z,27.63
2019-03-22T08:49:12.957Z,27.63
2019-03-22T08:51:42.724Z,26.17
2019-03-22T08:54:12.443Z,27.57
2019-03-22T08:56:42.511Z,33.10
2019-03-22T08:59:13.452Z,32.87
2019-03-22T09:01:43.223Z,34.30
2019-03-22T09:04:12.873Z,35.67
2019-03-22T09:06:42.447Z,37.17
2019-03-22T09:09:12.063Z,38.80
2019-03-22T09:11:42.225Z,43.63
2019-03-22T09:14:11.849Z,51.13
2019-03-22T09:16:44.056Z,40.73
2019-03-22T09:19:13.781Z,41.87
2019-03-22T09:21:43.246Z,37.27
2019-03-22T09:24:12.878Z,41.07
2019-03-22T09:26:47.543Z,44.53
2019-03-22T09:29:14.037Z,42.73
2019-03-22T09:31:43.666Z,41.80
2019-03-22T09:34:13.114Z,42.77
2019-03-22T09:36:42.661Z,43.57
2019-03-22T09:39:12.477Z,43.33
2019-03-22T09:41:43.178Z,37.50
2019-03-22T09:44:13.016Z,40.43
2019-03-22T09:46:42.337Z,42.60
2019-03-22T09:49:12.144Z,44.17
2019-03-22T09:51:41.886Z,43.37
2019-03-22T09:54:11.821Z,42.10
2019-03-22T09:56:46.816Z,40.73
2019-03-22T09:59:12.514Z,36.87
2019-03-22T10:01:42.086Z,38.30
2019-03-22T10:04:11.709Z,36.73
2019-03-22T10:06:41.168Z,35.80
2019-03-22T10:09:10.461Z,36.13
2019-03-22T10:11:40.287Z,35.23
2019-03-22T10:14:09.960Z,34.83
2019-03-22T10:16:39.837Z,42.10
2019-03-22T10:19:09.346Z,35.20
2019-03-22T10:21:39.080Z,38.50
2019-03-22T10:24:08.855Z,39.07
2019-03-22T10:26:38.585Z,36.33
2019-03-22T10:29:08.657Z,32.13
2019-03-22T10:31:38.317Z,38.00
2019-03-22T10:34:07.687Z,38.47
2019-03-22T10:36:37.455Z,33.57
2019-03-22T10:39:08.728Z,33.97
2019-03-22T10:41:38.640Z,35.17
2019-03-22T10:44:08.666Z,35.57
2019-03-22T10:46:38.079Z,30.90
2019-03-22T10:49:07.520Z,27.40
2019-03-22T10:51:37.281Z,24.10
2019-03-22T10:54:08.925Z,16.00
2019-03-22T10:56:38.104Z,19.53
2019-03-22T10:59:08.741Z,16.00
2019-03-22T11:01:57.590Z,14.70
2019-03-22T11:06:39.519Z,15.67
2019-03-22T11:09:12.317Z,14.40
2019-03-22T11:11:42.467Z,11.13
2019-03-22T11:14:12.262Z,10.40
2019-03-22T11:16:41.943Z,11.43
2019-03-22T11:19:11.779Z,20.57
2019-03-22T11:21:41.333Z,12.57
2019-03-22T11:24:10.898Z,12.43
2019-03-22T11:26:40.452Z,16.03
2019-03-22T11:29:10.253Z,13.90
2019-03-22T11:31:40.370Z,13.20
2019-03-22T11:34:10.464Z,14.00
2019-03-22T11:36:40.224Z,13.67
2019-03-22T11:39:15.526Z,11.83
2019-03-22T11:41:42.055Z,15.43
2019-03-22T11:44:11.776Z,11.20
2019-03-22T11:46:41.315Z,12.03
2019-03-22T11:49:11.112Z,10.57
2019-03-22T11:51:40.718Z,11.30
2019-03-22T11:54:10.314Z,12.23
2019-03-22T11:56:39.929Z,14.40
2019-03-22T11:59:09.408Z,13.93
2019-03-22T12:01:38.817Z,13.17
2019-03-22T12:04:08.432Z,9.90
2019-03-22T12:06:38.436Z,13.43
2019-03-22T12:09:09.584Z,11.13
2019-03-22T12:11:39.398Z,9.97
2019-03-22T12:14:09.010Z,9.17
2019-03-22T12:16:38.760Z,9.43
2019-03-22T12:19:08.223Z,9.50
2019-03-22T12:21:37.943Z,11.90
2019-03-22T12:24:07.422Z,9.23
2019-03-22T12:26:36.920Z,10.53
2019-03-22T12:29:06.312Z,10.37
2019-03-22T12:31:35.945Z,9.90
2019-03-22T12:34:05.644Z,9.20
2019-03-22T12:36:35.047Z,9.27
2019-03-22T12:39:06.296Z,8.50
2019-03-22T12:41:36.221Z,8.43
2019-03-22T12:44:05.711Z,8.50
2019-03-22T12:46:35.204Z,6.77
2019-03-22T12:49:04.831Z,7.90
2019-03-22T12:51:34.613Z,9.00
2019-03-22T12:54:04.135Z,7.20
2019-03-22T12:56:33.861Z,7.80
2019-03-22T12:59:03.340Z,9.00
2019-03-22T13:01:32.972Z,8.57
2019-03-22T13:04:02.391Z,9.70
2019-03-22T13:06:34.945Z,9.27
2019-03-22T13:09:06.115Z,9.27
2019-03-22T13:11:35.793Z,8.80
2019-03-22T13:14:05.297Z,10.23
2019-03-22T13:16:34.880Z,9.47
2019-03-22T13:19:04.505Z,9.37
2019-03-22T13:21:37.579Z,10.20
2019-03-22T13:24:07.000Z,10.33
2019-03-22T13:26:36.816Z,10.97
2019-03-22T13:29:06.408Z,10.37
2019-03-22T13:31:36.120Z,9.47
2019-03-22T13:34:05.642Z,9.63
2019-03-22T13:36:38.303Z,9.80
2019-03-22T13:39:08.402Z,9.10
2019-03-22T13:41:37.943Z,8.53
2019-03-22T13:44:07.205Z,8.40
2019-03-22T13:46:40.395Z,8.93
2019-03-22T13:49:08.179Z,8.33
2019-03-22T13:51:37.591Z,7.97
2019-03-22T13:54:07.269Z,9.50
2019-03-22T13:56:36.890Z,7.97
2019-03-22T13:59:06.590Z,7.37
2019-03-22T14:01:36.195Z,9.77
2019-03-22T14:04:05.810Z,8.27
2019-03-22T14:06:35.687Z,8.00
2019-03-22T14:09:07.042Z,8.37
2019-03-22T14:11:36.553Z,7.90
2019-03-22T14:14:05.827Z,6.67
2019-03-22T14:16:35.655Z,6.87
2019-03-22T14:19:05.018Z,8.67
2019-03-22T14:21:34.678Z,8.13
2019-03-22T14:24:04.599Z,7.27
2019-03-22T14:26:34.334Z,7.30
2019-03-22T14:29:03.690Z,9.30
2019-03-22T14:31:33.512Z,8.37
2019-03-22T14:34:03.282Z,8.87
2019-03-22T14:36:32.928Z,9.20
2019-03-22T14:39:02.656Z,9.57
2019-03-22T14:41:35.093Z,8.07
2019-03-22T14:44:04.518Z,7.83
2019-03-22T14:46:34.008Z,7.63
2019-03-22T14:49:04.094Z,8.43
2019-03-22T14:51:35.787Z,7.73
2019-03-22T14:54:05.156Z,7.20
2019-03-22T14:56:35.018Z,7.47
2019-03-22T14:59:05.749Z,7.23
2019-03-22T15:01:35.511Z,7.20
2019-03-22T15:04:04.907Z,9.43
2019-03-22T15:06:34.232Z,8.77
2019-03-22T15:09:04.782Z,7.87
2019-03-22T15:11:34.521Z,8.10
2019-03-22T15:14:08.262Z,8.83
2019-03-22T15:16:59.819Z,7.90
2019-03-22T15:19:43.755Z,7.67
2019-03-22T15:22:36.653Z,8.13
2019-03-22T15:25:28.731Z,7.30
2019-03-22T15:28:29.164Z,7.20
2019-03-22T15:31:32.880Z,7.37
2019-03-22T15:34:21.329Z,6.57
2019-03-22T15:37:08.880Z,7.43
2019-03-22T15:39:56.065Z,7.70
2019-03-22T15:42:25.684Z,7.43
2019-03-22T15:44:55.380Z,6.93
2019-03-22T15:47:24.999Z,6.73
2019-03-22T15:49:54.412Z,7.47
2019-03-22T15:52:23.983Z,7.03
2019-03-22T15:54:53.298Z,11.03
2019-03-22T15:57:22.988Z,7.20
2019-03-22T15:59:52.286Z,8.10
2019-03-22T16:02:22.035Z,6.33
2019-03-22T16:04:51.404Z,6.70
2019-03-22T16:07:20.912Z,7.57
2019-03-22T16:09:50.520Z,6.57
2019-03-22T16:12:19.914Z,9.37
2019-03-22T16:14:49.656Z,7.27
2019-03-22T16:17:19.030Z,7.37
2019-03-22T16:19:48.335Z,7.50
2019-03-22T16:22:18.069Z,8.20
2019-03-22T16:24:47.743Z,6.00
2019-03-22T16:27:17.540Z,6.50
2019-03-22T16:29:47.407Z,6.73
2019-03-22T16:32:16.885Z,6.40
2019-03-22T16:34:46.479Z,8.63
2019-03-22T16:37:15.901Z,9.03
2019-03-22T16:39:45.824Z,9.07
2019-03-22T16:42:15.406Z,10.37
2019-03-22T16:44:45.114Z,9.30
2019-03-22T16:47:14.814Z,9.90
2019-03-22T16:49:44.094Z,9.50
2019-03-22T16:52:13.525Z,10.67
2019-03-22T16:54:43.059Z,8.20
2019-03-22T16:57:12.730Z,8.97
2019-03-22T16:59:42.641Z,7.10
2019-03-22T17:02:12.465Z,6.20
2019-03-22T17:04:41.854Z,7.60
2019-03-22T17:07:11.250Z,7.87
2019-03-22T17:09:40.803Z,8.87
2019-03-22T17:12:10.160Z,8.53
2019-03-22T17:14:39.488Z,11.27
2019-03-22T17:17:09.039Z,7.27
2019-03-22T17:19:38.471Z,8.50
2019-03-22T17:22:09.685Z,10.63
2019-03-22T17:24:39.230Z,9.17
2019-03-22T17:27:08.831Z,11.03
2019-03-22T17:29:38.229Z,6.77
2019-03-22T17:32:07.678Z,8.17
2019-03-22T17:34:37.141Z,11.70
2019-03-22T17:37:06.660Z,7.70
2019-03-22T17:39:36.371Z,8.30
2019-03-22T17:42:05.629Z,7.23
2019-03-22T17:44:35.596Z,7.37
2019-03-22T17:47:05.350Z,7.87
2019-03-22T17:49:35.086Z,7.97
2019-03-22T17:52:04.870Z,6.37
2019-03-22T17:54:34.596Z,7.00
2019-03-22T17:57:04.218Z,8.27
2019-03-22T17:59:33.897Z,5.50
2019-03-22T18:02:03.442Z,6.63
2019-03-22T18:04:33.150Z,5.17
2019-03-22T18:07:02.505Z,4.53
2019-03-22T18:09:32.638Z,5.67
2019-03-22T18:12:02.151Z,4.37
2019-03-22T18:14:31.752Z,5.30
2019-03-22T18:17:01.041Z,4.83
2019-03-22T18:19:30.656Z,4.73
2019-03-22T18:21:59.962Z,5.73
2019-03-22T18:24:29.408Z,5.60
2019-03-22T18:26:58.872Z,5.50
2019-03-22T18:29:28.360Z,6.23
2019-03-22T18:31:57.901Z,6.50
2019-03-22T18:34:34.302Z,9.37
2019-03-22T18:36:58.748Z,9.53
2019-03-22T18:39:28.571Z,6.50
2019-03-22T18:41:58.036Z,4.40
2019-03-22T18:44:27.840Z,7.80
2019-03-22T18:46:57.479Z,6.47
2019-03-22T18:49:27.406Z,7.27
2019-03-22T18:51:56.986Z,5.23
2019-03-22T18:54:26.682Z,6.33
2019-03-22T18:56:56.293Z,4.80
2019-03-22T18:59:25.895Z,4.93
2019-03-22T19:01:55.372Z,4.90
2019-03-22T19:04:24.997Z,6.90
2019-03-22T19:06:54.411Z,6.80
2019-03-22T19:09:23.915Z,8.43
2019-03-22T19:11:53.256Z,5.37
2019-03-22T19:14:23.223Z,5.90
2019-03-22T19:16:52.678Z,8.83
2019-03-22T19:19:23.125Z,7.93
2019-03-22T19:21:52.752Z,5.67
2019-03-22T19:24:22.432Z,6.90
2019-03-22T19:26:51.976Z,9.13
2019-03-22T19:29:21.677Z,6.67
2019-03-22T19:31:51.070Z,9.10
2019-03-22T19:34:20.782Z,6.27
2019-03-22T19:36:50.270Z,9.80
2019-03-22T19:39:19.909Z,7.07
2019-03-22T19:41:49.293Z,9.97
2019-03-22T19:44:19.870Z,8.17
2019-03-22T19:46:49.436Z,11.53
2019-03-22T19:49:19.454Z,13.53
2019-03-22T19:51:49.010Z,11.67
2019-03-22T19:54:18.428Z,8.93
2019-03-22T19:56:47.846Z,9.20
2019-03-22T19:59:17.559Z,10.03
2019-03-22T20:01:46.992Z,9.33
2019-03-22T20:04:16.466Z,9.33
2019-03-22T20:06:46.044Z,9.67
2019-03-22T20:09:15.492Z,9.90
2019-03-22T20:11:44.796Z,7.30
2019-03-22T20:14:14.599Z,8.33
2019-03-22T20:16:44.088Z,8.80
2019-03-22T20:19:13.505Z,7.17
2019-03-22T20:21:43.076Z,8.47
2019-03-22T20:24:12.856Z,11.70
2019-03-22T20:26:42.238Z,9.20
2019-03-22T20:29:11.726Z,11.57
2019-03-22T20:31:41.076Z,9.47
2019-03-22T20:34:10.651Z,11.77
2019-03-22T20:36:40.125Z,11.83
2019-03-22T20:39:09.623Z,10.57
2019-03-22T20:41:39.115Z,11.37
2019-03-22T20:44:08.631Z,12.83
2019-03-22T20:46:38.128Z,10.73
2019-03-22T20:49:07.950Z,10.63
2019-03-22T20:51:37.532Z,9.70
2019-03-22T20:54:07.069Z,13.37
2019-03-22T20:56:36.473Z,14.83
2019-03-22T20:59:06.006Z,15.67
2019-03-22T21:01:35.987Z,12.33
2019-03-22T21:04:05.952Z,14.77
2019-03-22T21:06:35.503Z,14.53
2019-03-22T21:09:06.568Z,27.80
2019-03-22T21:11:36.189Z,21.23
2019-03-22T21:14:05.901Z,21.57
2019-03-22T21:16:35.541Z,21.23
2019-03-22T21:19:05.035Z,22.07
2019-03-22T21:21:36.547Z,17.43
2019-03-22T21:24:08.748Z,22.83
2019-03-22T21:26:37.885Z,20.27
2019-03-22T21:29:07.741Z,20.53
2019-03-22T21:31:36.976Z,19.50
2019-03-22T21:34:06.551Z,18.27
2019-03-22T21:36:36.134Z,15.83
2019-03-22T21:39:07.137Z,17.00
2019-03-22T21:41:36.644Z,20.47
2019-03-22T21:44:06.059Z,17.90
2019-03-22T21:46:35.646Z,17.10
2019-03-22T21:49:05.088Z,16.60
2019-03-22T21:51:34.440Z,15.07
2019-03-22T21:54:04.053Z,16.27
2019-03-22T21:56:33.559Z,15.23
2019-03-22T21:59:03.376Z,17.67
2019-03-22T22:01:33.108Z,17.57
2019-03-22T22:04:02.730Z,18.60
2019-03-22T22:06:32.413Z,18.67
2019-03-22T22:09:02.208Z,17.07
2019-03-22T22:11:31.504Z,18.57
2019-03-22T22:14:01.214Z,20.80
2019-03-22T22:16:30.743Z,18.83
2019-03-22T22:19:00.211Z,21.23
2019-03-22T22:21:29.825Z,21.10
2019-03-22T22:23:59.565Z,21.77
2019-03-22T22:26:29.268Z,23.47
2019-03-22T22:28:58.959Z,16.27
2019-03-22T22:31:28.393Z,16.03
2019-03-22T22:33:57.783Z,15.87
2019-03-22T22:36:27.259Z,17.10
2019-03-22T22:38:56.791Z,16.37
2019-03-22T22:41:26.278Z,16.10
2019-03-22T22:43:55.664Z,16.30
2019-03-22T22:46:25.366Z,18.07
2019-03-22T22:48:54.782Z,16.23
2019-03-22T22:51:24.390Z,15.67
2019-03-22T22:53:53.896Z,16.10
2019-03-22T22:56:23.497Z,17.73
2019-03-22T22:58:53.712Z,18.47
2019-03-22T23:01:23.255Z,16.70
2019-03-22T23:03:52.788Z,17.70
2019-03-22T23:06:22.414Z,14.47
2019-03-22T23:08:51.942Z,15.23
2019-03-22T23:11:21.734Z,17.87
2019-03-22T23:13:51.262Z,18.50
2019-03-22T23:16:20.717Z,17.87
2019-03-22T23:18:51.348Z,18.97
2019-03-22T23:21:20.698Z,19.70
2019-03-22T23:23:50.712Z,19.17
2019-03-22T23:26:20.200Z,20.53
2019-03-22T23:28:49.586Z,19.17
2019-03-22T23:31:19.035Z,18.57
2019-03-22T23:33:48.524Z,16.50
2019-03-22T23:36:20.443Z,16.93
2019-03-22T23:38:49.464Z,20.97
2019-03-22T23:41:18.980Z,18.27
2019-03-22T23:43:48.568Z,21.13
2019-03-22T23:46:18.023Z,17.70
2019-03-22T23:48:47.374Z,19.90
2019-03-22T23:51:16.780Z,15.57
2019-03-22T23:53:46.175Z,18.97
2019-03-22T23:56:16.018Z,19.10
2019-03-22T23:58:45.272Z,17.37
